Terminal Aerodrome Forecast
Issued by NWS

Home | Current Version | Previous Version | Text Only | Print | Product List | Glossary On
Versions: 1 2 3 4 5 6 7 8 9 10 11 12 13 14 15
000
FTUS46 KSEW 252300 RRA
TAFPAE
TAF
KPAE 252342Z 2600/2624 VRB04KT P6SM SCT150 BKN200
     FM260800 14005KT 2SM BR SCT003
     FM261000 12003KT 1/4SM FG VV001
     FM261600 14007KT 4SM BR SCT002 BKN005
     FM261800 16009KT P6SM SCT020 BKN200=

USA.gov is the U.S. government's official web portal to all federal, state and local government web resources and services.